Impacts METAR Board
IDs:

KPGD - Punta Gorda/Charlott, FL, US

Updated at: 2000 UTC 21 Sep 2021
Potential Impact None Slight Moderate High
Time 21/08Z 21/09Z 21/10Z 21/11Z 21/12Z 21/13Z 21/14Z 21/15Z 21/16Z 21/17Z 21/18Z 21/19Z 21/20Z
Temp75 75 74 75 76 78 83 87 89 89 90 89 77
Dewpt74 74 73 74 74 75 76 77 77 77 75 74 75
Altim29.99 29.99 30.01 30.02 30.04 30.04 30.06 30.07 30.07 30.04 30.02 30.02 30.03
VIS10 10 10 10 10 10 10 10 10 10 10 10 1.75
CIG-- -- -- 4 6 -- -- -- 39 60 -- -- 46
CoverCLRCLRCLROVCBKNSCTFEWSCTBKNBKNFEWSCTOVC
FltCatVFRVFRVFRLIFRIFRVFRVFRVFRVFRVFRVFRVFRIFR
WX------------------------TSRA BR
WDir003070005014000280120170
WSpd0 0 4 4 0 0 4 4 4 6 8 9 14
WGst-- -- -- -- -- -- -- -- -- -- -- -- --
Raw hourly METARs
KPGD 210753Z AUTO 00000KT 10SM CLR 24/23 A2999 RMK AO2 SLP154 T02390233
KPGD 210853Z AUTO 00000KT 10SM CLR 24/23 A2999 RMK AO2 SLP155 T02390233 55010
KPGD 210953Z 03004KT 10SM CLR 23/23 A3001 RMK AO2 SLP160 T02330228
KPGD 211053Z 07004KT 10SM BKN004 OVC009 24/23 A3002 RMK AO2 CIG 003V008 SLP165 T02390233
KPGD 211153Z 00000KT 10SM BKN006 24/23 A3004 RMK AO2 SLP172 T02440233 10244 20233 53012
KPGD 211253Z 00000KT 10SM SCT006 26/24 A3004 RMK AO2 SLP173 T02560239
KPGD 211353Z 05004KT 10SM FEW010 28/24 A3006 RMK AO2 SLP177 T02830244
KPGD 211453Z 14004KT 10SM SCT015 31/25 A3007 RMK AO2 SLP182 T03060250 53010
KPGD 211553Z VRB04KT 10SM SCT030 BKN039 32/25 A3007 RMK AO2 SLP180 T03170250
KPGD 211653Z VRB06KT 10SM BKN060 32/25 A3004 RMK AO2 SLP172 T03170250
KPGD 211753Z 28008KT 10SM FEW033 32/24 A3002 RMK AO2 LTG DSNT E SLP164 T03220239 10328 20244 58019
KPGD 211853Z 12009KT 10SM SCT038 32/23 A3002 RMK AO2 LTG DSNT E-S SLP164 T03170233
KPGD 211953Z 17014KT 1 3/4SM TSRA BR FEW032 BKN046 OVC060 25/24 A3003 RMK AO2 WSHFT 1854 LTG DSNT N-SE RAB32 TSB29 SLP169 P0024 T02500239



Page loaded:  20:06 UTC  |   01:06 PM Pacific  |   02:06 PM Mountain  |   03:06 PM Central  |   04:06 PM Eastern

 

ADVISORIES

FORECASTS

FORECASTS

OBSERVATIONS

USER TOOLS

ABOUT US